Time;durP1;ratioP1;P1;durP2;ratioP2;P2;SDS_P1;SDS_P2;PMS_P1;PMS_P2;Temp;Humidity;BMP_temperature;BMP_pressure;BME280_temperature;BME280_humidity;BME280_pressure;Samples;Min_cycle;Max_cycle;Signal;HPM_P1;HPM_P2
2022/08/01 00:04:34;;;;;;;2.28;1.95;;;20.80;99.90;;;;;;10606751;27;20232;-91
2022/08/01 00:09:37;;;;;;;2.40;2.20;;;20.80;99.90;;;;;;10606849;27;20196;-91
2022/08/01 00:14:39;;;;;;;1.95;1.83;;;20.80;99.90;;;;;;10625064;27;20573;-90
2022/08/01 00:19:42;;;;;;;2.15;1.95;;;20.80;99.90;;;;;;10607139;27;20196;-91
2022/08/01 00:24:44;;;;;;;1.65;1.55;;;20.80;99.90;;;;;;10624720;27;20224;-90
2022/08/01 00:29:47;;;;;;;2.28;2.08;;;20.80;99.90;;;;;;10624990;27;20200;-90
2022/08/01 00:35:10;;;;;;;1.85;1.75;;;20.80;99.90;;;;;;10624711;27;20224;-90
2022/08/01 00:40:12;;;;;;;1.90;1.80;;;20.80;99.90;;;;;;10624373;27;20217;-90
2022/08/01 00:45:15;;;;;;;2.10;1.88;;;20.80;99.90;;;;;;10605964;27;20208;-90
2022/08/01 00:50:17;;;;;;;2.33;2.13;;;20.80;99.90;;;;;;10605550;27;20560;-91
2022/08/01 00:55:20;;;;;;;1.85;1.75;;;20.80;99.90;;;;;;10623966;27;20196;-90
2022/08/01 01:00:23;;;;;;;1.88;1.65;;;20.80;99.90;;;;;;10605898;27;20602;-91
2022/08/01 01:05:33;;;;;;;1.70;1.60;;;20.80;99.90;;;;;;10623872;27;20216;-91
2022/08/01 01:10:50;;;;;;;1.75;1.63;;;20.80;99.90;;;;;;10604920;27;20606;-90
2022/08/01 01:16:00;;;;;;;2.00;1.90;;;20.80;99.90;;;;;;10605145;28;20200;-91
2022/08/01 01:21:17;;;;;;;1.83;1.73;;;20.80;99.90;;;;;;10623315;28;20192;-91
2022/08/01 01:26:35;;;;;;;2.03;1.90;;;20.80;99.90;;;;;;10605988;28;20216;-91
2022/08/01 01:31:46;;;;;;;2.00;1.77;;;20.80;99.90;;;;;;10604725;28;20221;-91
2022/08/01 01:36:50;;;;;;;2.15;2.05;;;20.80;99.90;;;;;;10604580;28;20230;-90
2022/08/01 01:41:54;;;;;;;1.67;1.58;;;20.80;99.90;;;;;;10603739;28;20734;-91
2022/08/01 01:46:59;;;;;;;2.10;1.83;;;20.80;99.90;;;;;;10624684;27;20220;-90
2022/08/01 01:52:03;;;;;;;2.85;1.80;;;20.80;99.90;;;;;;10613296;27;20233;-91
2022/08/01 01:57:08;;;;;;;1.70;1.60;;;20.80;99.90;;;;;;10612792;27;20608;-92
2022/08/01 02:02:12;;;;;;;1.77;1.67;;;20.80;99.90;;;;;;10612212;27;20571;-91
2022/08/01 02:07:20;;;;;;;2.47;1.70;;;20.80;99.90;;;;;;10630126;27;20220;-91
2022/08/01 02:12:24;;;;;;;2.33;1.88;;;20.80;99.90;;;;;;10612059;27;20192;-90
2022/08/01 02:17:27;;;;;;;1.83;1.70;;;20.80;99.90;;;;;;10629797;27;20200;-90
2022/08/01 02:22:33;;;;;;;1.63;1.52;;;20.80;99.90;;;;;;10611954;27;20196;-90
2022/08/01 02:28:17;;;;;;;1.85;1.75;;;20.80;99.90;;;;;;10610460;27;20711;-91
2022/08/01 02:33:36;;;;;;;1.85;1.75;;;20.80;99.90;;;;;;10616943;27;20223;-91
2022/08/01 02:38:42;;;;;;;1.70;1.60;;;20.80;99.90;;;;;;10629016;27;20602;-90
2022/08/01 02:43:51;;;;;;;1.60;1.50;;;20.80;99.90;;;;;;10609743;27;20275;-90
2022/08/01 02:48:57;;;;;;;3.35;2.05;;;20.80;99.90;;;;;;10628787;27;20726;-90
2022/08/01 02:54:02;;;;;;;2.30;2.10;;;20.80;99.90;;;;;;10610360;27;20193;-90
2022/08/01 02:59:14;;;;;;;2.45;1.98;;;20.80;99.90;;;;;;10608550;27;20192;-91
2022/08/01 03:04:18;;;;;;;2.28;1.83;;;20.90;99.90;;;;;;10628033;27;20299;-90
2022/08/01 03:09:22;;;;;;;3.25;2.45;;;20.90;99.90;;;;;;10627795;27;20192;-90
2022/08/01 03:14:26;;;;;;;2.03;1.65;;;20.90;99.90;;;;;;10627722;27;20246;-91
2022/08/01 03:19:31;;;;;;;1.63;1.52;;;20.90;99.90;;;;;;10608475;27;20217;-90
2022/08/01 03:24:35;;;;;;;2.47;1.83;;;20.90;99.90;;;;;;10627040;27;20212;-91
2022/08/01 03:29:39;;;;;;;1.70;1.60;;;20.90;99.90;;;;;;10609254;27;20196;-91
2022/08/01 03:34:42;;;;;;;1.88;1.77;;;20.90;99.90;;;;;;10608549;27;20220;-91
2022/08/01 03:39:51;;;;;;;3.58;1.88;;;20.90;99.90;;;;;;10626792;27;20257;-91
2022/08/01 03:44:58;;;;;;;2.05;1.85;;;20.90;99.90;;;;;;10607920;27;20576;-90
2022/08/01 03:50:03;;;;;;;3.35;1.88;;;20.90;99.90;;;;;;10626132;27;20192;-90
2022/08/01 03:55:12;;;;;;;2.00;1.80;;;20.90;99.90;;;;;;10608717;27;20196;-91
2022/08/01 04:00:18;;;;;;;2.42;2.08;;;20.90;99.90;;;;;;10589962;27;20626;-90
2022/08/01 04:05:21;;;;;;;2.03;1.85;;;21.00;99.90;;;;;;10625472;27;20216;-90
2022/08/01 04:10:24;;;;;;;2.08;1.88;;;21.00;99.90;;;;;;10589826;27;20246;-90
2022/08/01 04:15:26;;;;;;;1.92;1.83;;;21.00;99.90;;;;;;10625015;27;20229;-90
2022/08/01 04:20:29;;;;;;;2.20;2.00;;;21.00;99.90;;;;;;10606303;27;20575;-90
2022/08/01 04:25:34;;;;;;;2.30;2.10;;;21.00;99.90;;;;;;10624766;27;20224;-90
2022/08/01 04:30:39;;;;;;;2.28;2.08;;;21.00;99.90;;;;;;10606156;27;20192;-90
2022/08/01 04:35:45;;;;;;;2.17;1.90;;;21.00;99.90;;;;;;10605671;27;20224;-90
2022/08/01 04:41:10;;;;;;;2.15;1.65;;;21.00;99.90;;;;;;10624269;27;20613;-91
2022/08/01 04:46:14;;;;;;;2.30;2.15;;;21.10;99.90;;;;;;10605028;27;20237;-90
2022/08/01 04:51:18;;;;;;;2.13;1.95;;;21.10;99.90;;;;;;10588659;27;20200;-90
2022/08/01 04:56:21;;;;;;;1.90;1.80;;;21.10;99.90;;;;;;10604656;27;20200;-90
2022/08/01 05:01:23;;;;;;;2.08;1.88;;;21.10;99.90;;;;;;10604842;27;20212;-90
2022/08/01 05:06:26;;;;;;;2.17;1.98;;;21.10;99.90;;;;;;10605081;27;20250;-90
2022/08/01 05:11:28;;;;;;;2.05;1.95;;;21.20;99.90;;;;;;10604774;27;20192;-90
2022/08/01 05:16:31;;;;;;;1.70;1.60;;;21.20;99.90;;;;;;10604457;28;20208;-91
2022/08/01 05:21:33;;;;;;;2.25;2.05;;;21.10;99.90;;;;;;10606286;27;20196;-90
2022/08/01 05:26:37;;;;;;;2.33;2.13;;;21.20;99.90;;;;;;10596924;27;20224;-90
2022/08/01 05:31:39;;;;;;;1.73;1.63;;;21.10;99.90;;;;;;10632001;27;20616;-90
2022/08/01 05:36:43;;;;;;;2.38;2.17;;;21.10;99.90;;;;;;10631628;27;20196;-90
2022/08/01 05:41:45;;;;;;;2.05;1.85;;;21.20;99.90;;;;;;10631509;27;20245;-91
2022/08/01 05:46:48;;;;;;;1.90;1.80;;;21.20;99.90;;;;;;10630580;27;20208;-90
2022/08/01 05:51:50;;;;;;;2.08;1.92;;;21.20;99.90;;;;;;10631636;27;20249;-90
2022/08/01 05:56:53;;;;;;;1.75;1.65;;;21.20;99.90;;;;;;10613031;27;20197;-90
2022/08/01 06:01:56;;;;;;;1.98;1.80;;;21.20;99.90;;;;;;10630586;27;20564;-91
2022/08/01 06:06:58;;;;;;;2.28;2.05;;;21.20;99.90;;;;;;10630475;27;20212;-90
2022/08/01 06:12:01;;;;;;;1.95;1.75;;;21.20;99.90;;;;;;10594913;27;20192;-90
2022/08/01 06:17:03;;;;;;;2.20;2.00;;;21.20;99.90;;;;;;10611812;27;20617;-90
2022/08/01 06:22:06;;;;;;;2.10;1.90;;;21.20;99.90;;;;;;10611924;27;20192;-91
2022/08/01 06:27:09;;;;;;;2.25;2.05;;;21.20;99.90;;;;;;10629630;27;20625;-90
2022/08/01 06:32:24;;;;;;;2.15;1.95;;;21.30;99.90;;;;;;10610195;27;20220;-90
2022/08/01 06:37:30;;;;;;;2.50;2.30;;;21.30;99.90;;;;;;10629382;27;20212;-89
2022/08/01 06:42:35;;;;;;;2.15;1.95;;;21.30;99.90;;;;;;10611188;27;20196;-90
2022/08/01 06:47:38;;;;;;;1.80;1.70;;;21.40;99.90;;;;;;10609878;27;20274;-91
2022/08/01 06:52:41;;;;;;;6.03;1.98;;;21.30;99.90;;;;;;10628652;27;20196;-90
2022/08/01 06:57:52;;;;;;;2.38;2.00;;;21.40;99.90;;;;;;10609865;27;20280;-91
2022/08/01 07:02:58;;;;;;;2.30;2.10;;;21.50;99.90;;;;;;10628622;27;20221;-89
2022/08/01 07:08:00;;;;;;;2.13;2.03;;;21.50;99.90;;;;;;10610245;27;20581;-90
2022/08/01 07:13:03;;;;;;;2.08;1.88;;;21.50;99.90;;;;;;10627648;27;20264;-91
2022/08/01 07:18:05;;;;;;;2.15;1.95;;;21.50;99.90;;;;;;10627661;27;20233;-90
2022/08/01 07:23:08;;;;;;;3.00;2.30;;;21.50;99.90;;;;;;10627549;27;20204;-90
2022/08/01 07:28:14;;;;;;;2.65;2.45;;;21.50;99.90;;;;;;10627046;27;20220;-90
2022/08/01 07:33:17;;;;;;;4.00;2.63;;;21.50;99.90;;;;;;10608971;27;20216;-91
2022/08/01 07:38:19;;;;;;;1.98;1.80;;;21.50;99.90;;;;;;10626836;27;20237;-90
2022/08/01 07:43:22;;;;;;;2.13;1.92;;;21.50;99.90;;;;;;10607708;27;20268;-90
2022/08/01 07:48:25;;;;;;;1.65;1.50;;;21.60;99.90;;;;;;10607720;27;20220;-91
2022/08/01 07:53:28;;;;;;;3.28;2.72;;;21.70;99.90;;;;;;10607540;27;20619;-90
2022/08/01 07:58:31;;;;;;;2.58;2.38;;;21.70;99.90;;;;;;10607761;27;20580;-90
2022/08/01 08:03:34;;;;;;;3.88;2.20;;;21.80;99.90;;;;;;10606960;27;20612;-90
2022/08/01 08:08:36;;;;;;;2.13;2.00;;;21.80;99.90;;;;;;10607788;27;20265;-90
2022/08/01 08:13:39;;;;;;;2.35;2.15;;;21.80;99.90;;;;;;10606455;27;20257;-90
2022/08/01 08:18:41;;;;;;;3.72;3.42;;;21.80;99.90;;;;;;10625369;27;20253;-91
2022/08/01 08:29:05;;;;;;;3.58;3.28;;;21.70;99.90;;;;;;10606113;27;20594;-90
2022/08/01 08:34:08;;;;;;;3.40;2.90;;;21.70;99.90;;;;;;10624464;27;20630;-90
2022/08/01 08:39:10;;;;;;;4.03;3.72;;;21.60;99.90;;;;;;10606246;27;20252;-91
2022/08/01 08:44:13;;;;;;;4.47;4.03;;;21.70;99.90;;;;;;10606196;27;20192;-90
2022/08/01 08:49:21;;;;;;;8.30;5.15;;;21.70;99.90;;;;;;10624226;27;20212;-90
2022/08/01 08:54:24;;;;;;;4.30;3.88;;;21.90;99.90;;;;;;10588681;27;20204;-91
2022/08/01 08:59:32;;;;;;;9.50;7.53;;;21.90;99.90;;;;;;10605129;27;20257;-90
2022/08/01 09:04:37;;;;;;;10.48;7.57;;;22.00;99.90;;;;;;10604951;27;20196;-91
2022/08/01 09:09:39;;;;;;;7.60;6.88;;;22.10;99.90;;;;;;10588215;27;20228;-90
2022/08/01 09:14:47;;;;;;;12.70;9.63;;;22.10;99.90;;;;;;10604977;27;20261;-90
2022/08/01 09:19:52;;;;;;;12.43;10.35;;;22.10;99.90;;;;;;10604811;28;20200;-91
2022/08/01 09:25:03;;;;;;;7.38;6.15;;;21.90;99.90;;;;;;10604468;28;20569;-90
2022/08/01 09:30:16;;;;;;;4.00;3.60;;;22.00;99.90;;;;;;10604052;28;20765;-90
2022/08/01 09:35:26;;;;;;;3.65;3.35;;;22.10;99.90;;;;;;10623105;28;20219;-90
2022/08/01 09:40:44;;;;;;;10.10;9.05;;;22.10;99.90;;;;;;10604579;28;20197;-91
2022/08/01 09:45:47;;;;;;;4.45;3.97;;;22.20;99.90;;;;;;10603969;28;20216;-91
2022/08/01 09:50:55;;;;;;;7.82;7.13;;;22.40;99.90;;;;;;10604247;28;20201;-90
2022/08/01 09:56:10;;;;;;;5.82;3.90;;;22.60;99.90;;;;;;10606402;28;20245;-90
2022/08/01 10:01:13;;;;;;;7.78;5.97;;;23.00;99.90;;;;;;10622738;28;20565;-90
2022/08/01 10:06:21;;;;;;;18.20;8.23;;;23.40;99.90;;;;;;10604369;28;20258;-91
2022/08/01 10:11:28;;;;;;;8.07;6.78;;;23.40;99.90;;;;;;10629672;27;20559;-89
2022/08/01 10:16:38;;;;;;;8.48;7.18;;;23.60;99.90;;;;;;10630217;27;20569;-90
2022/08/01 10:21:44;;;;;;;4.68;3.95;;;23.50;99.90;;;;;;10611824;27;20213;-90
2022/08/01 10:27:04;;;;;;;8.80;6.28;;;23.90;99.90;;;;;;10610855;27;20586;-90
2022/08/01 10:32:11;;;;;;;5.30;4.85;;;23.50;99.90;;;;;;10611804;27;20216;-89
2022/08/01 10:37:14;;;;;;;5.10;4.60;;;23.30;99.90;;;;;;10629338;27;20587;-90
2022/08/01 10:42:18;;;;;;;11.82;7.22;;;23.60;99.90;;;;;;10610320;27;20201;-90
2022/08/01 10:47:29;;;;;;;8.60;6.00;;;24.00;99.90;;;;;;10610117;27;20355;-90
2022/08/01 10:53:15;;;;;;;8.45;6.40;;;24.10;99.90;;;;;;10628965;27;20237;-90
2022/08/01 10:58:37;;;;;;;5.78;5.28;;;24.40;99.90;;;;;;10609766;27;20261;-89
2022/08/01 11:04:05;;;;;;;6.47;4.43;;;24.80;99.90;;;;;;10611141;27;20221;-90
2022/08/01 11:09:13;;;;;;;4.78;4.38;;;24.90;99.90;;;;;;10609987;27;20216;-90
2022/08/01 11:14:18;;;;;;;5.95;3.97;;;24.90;99.90;;;;;;10628114;27;20200;-89
2022/08/01 11:20:07;;;;;;;5.47;3.13;;;24.40;99.90;;;;;;10610093;27;20196;-90
2022/08/01 11:25:09;;;;;;;6.43;3.45;;;24.20;99.90;;;;;;10627537;27;20722;-89
2022/08/01 11:30:14;;;;;;;5.43;3.03;;;23.60;99.90;;;;;;10609780;27;20212;-91
2022/08/01 11:35:26;;;;;;;3.28;2.97;;;23.50;99.90;;;;;;10609601;27;20271;-90
2022/08/01 11:40:31;;;;;;;3.40;3.10;;;23.60;99.90;;;;;;10612181;27;20200;-90
2022/08/01 11:45:55;;;;;;;3.67;3.38;;;23.60;99.90;;;;;;10626930;27;20226;-91
2022/08/01 11:51:00;;;;;;;8.00;4.35;;;22.90;99.90;;;;;;10592006;27;20623;-90
2022/08/01 11:56:04;;;;;;;3.65;3.30;;;22.00;99.90;;;;;;10607688;27;20196;-90
2022/08/01 12:01:12;;;;;;;5.38;4.15;;;21.80;99.90;;;;;;10607688;27;20197;-90
2022/08/01 12:06:27;;;;;;;3.47;3.17;;;22.30;99.90;;;;;;10606984;27;20220;-90
2022/08/01 12:11:30;;;;;;;3.90;3.55;;;22.40;99.90;;;;;;10625641;27;20584;-89
2022/08/01 12:16:39;;;;;;;4.90;2.97;;;22.60;99.90;;;;;;10608040;27;20607;-90
2022/08/01 12:21:41;;;;;;;3.40;3.20;;;23.00;99.90;;;;;;10625901;27;20591;-90
2022/08/01 12:26:44;;;;;;;4.72;3.60;;;23.40;99.90;;;;;;10606070;27;20216;-90
2022/08/01 12:31:46;;;;;;;4.00;3.70;;;23.70;99.90;;;;;;10606570;27;20224;-90
2022/08/01 12:36:49;;;;;;;3.90;3.60;;;23.90;99.90;;;;;;10607087;27;20233;-90
2022/08/01 12:41:51;;;;;;;3.67;3.38;;;23.90;99.90;;;;;;10624535;27;20192;-90
2022/08/01 12:46:54;;;;;;;4.75;3.38;;;24.00;99.90;;;;;;10606082;27;20200;-90
2022/08/01 12:51:57;;;;;;;3.20;2.92;;;23.90;99.90;;;;;;10624267;27;20192;-90
2022/08/01 12:57:00;;;;;;;3.67;3.38;;;23.80;99.90;;;;;;10605662;27;20269;-89
2022/08/01 13:02:08;;;;;;;3.65;3.30;;;23.80;99.90;;;;;;10604982;27;20204;-90
2022/08/01 13:07:11;;;;;;;3.78;3.47;;;23.70;99.90;;;;;;10623998;27;20284;-91
2022/08/01 13:12:13;;;;;;;4.90;4.50;;;23.50;99.90;;;;;;10605393;27;20188;-90
2022/08/01 13:17:33;;;;;;;5.20;4.25;;;23.30;99.90;;;;;;10604550;27;20212;-90
2022/08/01 13:22:36;;;;;;;5.78;3.75;;;23.20;99.90;;;;;;10623534;28;20554;-90
2022/08/01 13:27:39;;;;;;;7.75;6.05;;;23.00;99.90;;;;;;10604688;28;20635;-90
2022/08/01 13:32:59;;;;;;;10.50;5.57;;;23.10;99.90;;;;;;10623348;28;20261;-90
2022/08/01 13:38:01;;;;;;;3.78;3.55;;;23.40;99.90;;;;;;10604993;28;20229;-91
2022/08/01 13:43:04;;;;;;;7.43;5.85;;;23.30;99.90;;;;;;10606986;27;20654;-90
2022/08/01 13:48:06;;;;;;;5.03;4.53;;;23.20;99.90;;;;;;10612363;27;20216;-91
2022/08/01 13:53:20;;;;;;;5.30;3.70;;;22.90;99.90;;;;;;10612458;27;20196;-89
2022/08/01 13:58:23;;;;;;;3.97;3.67;;;22.40;99.90;;;;;;10630883;27;20196;-90
2022/08/01 14:03:25;;;;;;;3.45;3.17;;;22.50;99.90;;;;;;10612830;27;20200;-90
2022/08/01 14:08:35;;;;;;;4.78;3.42;;;22.70;99.90;;;;;;10612019;27;20255;-90
2022/08/01 14:13:38;;;;;;;3.97;3.60;;;23.00;99.90;;;;;;10630561;27;20192;-90
2022/08/01 14:18:48;;;;;;;4.68;2.60;;;23.50;99.90;;;;;;10630247;27;20245;-89
2022/08/01 14:23:50;;;;;;;3.60;3.33;;;23.70;99.90;;;;;;10611958;27;20531;-89
2022/08/01 14:28:53;;;;;;;3.65;3.35;;;23.80;99.90;;;;;;10629634;27;20575;-89
2022/08/01 14:33:55;;;;;;;4.60;4.20;;;23.80;99.90;;;;;;10629985;27;20225;-90
2022/08/01 14:38:58;;;;;;;4.32;3.85;;;23.80;99.90;;;;;;10610831;27;20200;-91
2022/08/01 14:44:03;;;;;;;6.18;5.05;;;23.80;99.90;;;;;;10610182;27;20212;-90
2022/08/01 14:49:06;;;;;;;6.78;5.13;;;23.70;99.90;;;;;;10629184;27;20220;-91
2022/08/01 14:54:08;;;;;;;8.95;5.25;;;23.60;99.90;;;;;;10610601;27;20213;-90
2022/08/01 14:59:11;;;;;;;7.20;5.45;;;23.50;99.90;;;;;;10610475;27;20226;-91
2022/08/01 15:04:23;;;;;;;6.15;4.80;;;23.40;99.90;;;;;;10609624;27;20623;-91
2022/08/01 15:09:25;;;;;;;4.90;4.50;;;23.40;99.90;;;;;;10628132;27;20220;-90
2022/08/01 15:19:51;;;;;;;6.00;5.45;;;23.60;99.90;;;;;;10628315;27;20611;-92
2022/08/01 15:24:55;;;;;;;4.68;4.28;;;23.60;99.90;;;;;;10627892;27;20553;-91
2022/08/01 15:29:59;;;;;;;5.53;5.03;;;23.60;99.90;;;;;;10609298;27;20208;-91
2022/08/01 15:35:01;;;;;;;5.60;4.93;;;23.70;99.90;;;;;;10609726;27;20265;-91
2022/08/01 15:40:04;;;;;;;6.30;5.15;;;23.90;99.90;;;;;;10627443;27;20257;-91
2022/08/01 15:45:09;;;;;;;4.85;4.47;;;23.90;99.90;;;;;;10626728;27;20323;-90
2022/08/01 15:50:31;;;;;;;4.95;4.53;;;23.80;99.90;;;;;;10626967;27;20212;-91
2022/08/01 15:55:37;;;;;;;3.95;3.65;;;23.70;99.90;;;;;;10608722;27;20188;-90
2022/08/01 16:00:41;;;;;;;4.60;4.22;;;23.80;99.90;;;;;;10607865;27;20573;-90
2022/08/01 16:05:43;;;;;;;4.00;3.70;;;23.50;99.90;;;;;;10628549;27;20248;-90
2022/08/01 16:10:46;;;;;;;4.22;3.83;;;23.20;99.90;;;;;;10607711;27;20277;-91
2022/08/01 16:15:48;;;;;;;3.88;3.58;;;23.40;99.90;;;;;;10607722;27;20204;-90
2022/08/01 16:20:51;;;;;;;4.30;4.00;;;23.60;99.90;;;;;;10625681;27;20192;-91
2022/08/01 16:25:54;;;;;;;6.57;3.88;;;23.60;99.90;;;;;;10590465;27;20204;-90
2022/08/01 16:30:56;;;;;;;4.10;3.80;;;23.40;99.90;;;;;;10606801;27;20269;-91
2022/08/01 16:36:19;;;;;;;6.80;4.10;;;23.20;99.90;;;;;;10625160;27;20559;-90
2022/08/01 16:41:22;;;;;;;6.97;3.60;;;23.10;99.90;;;;;;10624987;27;20196;-90
2022/08/01 16:46:25;;;;;;;3.65;3.30;;;23.00;99.90;;;;;;10606385;27;20200;-90
2022/08/01 16:51:28;;;;;;;3.28;3.00;;;22.80;99.90;;;;;;10605407;27;20220;-91
2022/08/01 16:56:34;;;;;;;4.75;3.70;;;22.70;99.90;;;;;;10624390;27;20188;-90
2022/08/01 17:01:36;;;;;;;4.38;3.20;;;22.60;99.90;;;;;;10623902;27;20249;-91
2022/08/01 17:06:59;;;;;;;4.13;3.78;;;22.60;99.90;;;;;;10623942;27;20540;-90
2022/08/01 17:12:01;;;;;;;4.07;3.78;;;22.60;99.90;;;;;;10588414;27;20638;-90
2022/08/01 17:17:05;;;;;;;4.05;3.10;;;22.50;99.90;;;;;;10603761;27;20640;-91
2022/08/01 17:22:08;;;;;;;4.18;3.20;;;22.50;99.90;;;;;;10605984;28;20242;-90
2022/08/01 17:27:10;;;;;;;3.28;3.08;;;22.50;99.90;;;;;;10604539;28;20200;-90
2022/08/01 17:32:15;;;;;;;5.80;3.22;;;22.50;99.90;;;;;;10623017;28;20232;-90
2022/08/01 17:37:17;;;;;;;3.28;2.97;;;22.40;99.90;;;;;;10604281;28;20222;-90
2022/08/01 17:42:20;;;;;;;3.40;3.10;;;22.30;99.90;;;;;;10587705;28;20245;-91
2022/08/01 17:47:23;;;;;;;3.35;3.15;;;22.20;99.90;;;;;;10603928;28;20204;-90
2022/08/01 17:52:46;;;;;;;3.33;2.97;;;22.10;99.90;;;;;;10604685;28;20204;-90
2022/08/01 17:57:49;;;;;;;4.75;3.15;;;22.10;99.90;;;;;;10622703;28;20557;-91
2022/08/01 18:02:51;;;;;;;4.85;3.42;;;22.00;99.90;;;;;;10604426;28;20200;-90
2022/08/01 18:07:54;;;;;;;5.30;3.25;;;22.00;99.90;;;;;;10605025;28;20212;-90
2022/08/01 18:13:03;;;;;;;3.95;3.65;;;21.80;99.90;;;;;;10587894;28;20573;-91
2022/08/01 18:18:07;;;;;;;3.75;2.88;;;21.70;99.90;;;;;;10603536;28;20685;-90
2022/08/01 18:23:10;;;;;;;5.55;3.75;;;21.70;99.90;;;;;;10604229;28;20249;-90
2022/08/01 18:28:12;;;;;;;4.03;3.72;;;21.60;99.90;;;;;;10622616;27;20216;-90
2022/08/01 18:33:32;;;;;;;4.25;3.95;;;21.50;99.90;;;;;;10630005;27;20224;-90
2022/08/01 18:38:35;;;;;;;4.10;3.70;;;21.50;99.90;;;;;;10629467;27;20259;-90
2022/08/01 18:43:43;;;;;;;3.75;3.47;;;21.50;99.90;;;;;;10629150;27;20603;-90
2022/08/01 18:48:47;;;;;;;4.10;3.78;;;21.50;99.90;;;;;;10610931;27;20250;-90
2022/08/01 18:53:51;;;;;;;3.85;3.58;;;21.50;99.90;;;;;;10628893;27;20557;-90
2022/08/01 18:58:54;;;;;;;5.65;3.40;;;21.40;99.90;;;;;;10610366;27;20197;-91
2022/08/01 19:03:56;;;;;;;3.70;3.50;;;21.30;99.90;;;;;;10609747;27;20611;-90
2022/08/01 19:08:59;;;;;;;5.25;4.30;;;21.20;99.90;;;;;;10610236;27;20272;-90
2022/08/01 19:14:04;;;;;;;4.65;4.15;;;21.00;99.90;;;;;;10609774;27;20261;-91
2022/08/01 19:19:08;;;;;;;3.90;3.60;;;21.00;99.90;;;;;;10610049;27;20218;-90
2022/08/01 19:24:17;;;;;;;4.85;4.40;;;21.00;99.90;;;;;;10609724;27;20196;-90
2022/08/01 19:29:29;;;;;;;4.68;3.78;;;21.10;99.90;;;;;;10608752;27;20227;-90
2022/08/01 19:34:58;;;;;;;4.38;4.07;;;21.00;99.90;;;;;;10592708;27;20225;-90
2022/08/01 19:40:00;;;;;;;4.10;3.70;;;21.10;99.90;;;;;;10626123;27;20249;-91
2022/08/01 19:45:04;;;;;;;4.10;3.80;;;21.10;99.90;;;;;;10626834;27;20204;-91
2022/08/01 19:50:06;;;;;;;5.25;4.75;;;21.10;99.90;;;;;;10626629;27;20268;-90
2022/08/01 19:55:11;;;;;;;7.90;5.18;;;21.00;99.90;;;;;;10607870;27;20204;-90
2022/08/01 20:00:13;;;;;;;9.32;5.95;;;20.90;99.90;;;;;;10626319;27;20227;-90
2022/08/01 20:05:29;;;;;;;4.70;4.32;;;21.00;99.90;;;;;;10626719;27;20199;-90
2022/08/01 20:10:34;;;;;;;6.38;5.88;;;21.00;99.90;;;;;;10607899;27;20220;-90
2022/08/01 20:15:37;;;;;;;6.57;5.80;;;21.00;99.90;;;;;;10607647;27;20225;-90
2022/08/01 20:20:42;;;;;;;7.03;5.38;;;21.00;99.90;;;;;;10606553;27;20610;-90
2022/08/01 20:25:48;;;;;;;4.30;4.00;;;21.00;99.90;;;;;;10625240;27;20603;-90
2022/08/01 20:30:55;;;;;;;6.80;6.15;;;21.10;99.90;;;;;;10606539;27;20220;-90
2022/08/01 20:35:58;;;;;;;6.32;5.82;;;21.00;99.90;;;;;;10606629;27;20225;-89
2022/08/01 20:41:04;;;;;;;7.07;6.03;;;20.80;99.90;;;;;;10624881;27;20225;-90
2022/08/01 20:46:06;;;;;;;7.00;5.60;;;20.90;99.90;;;;;;10605471;27;20573;-90
2022/08/01 20:51:15;;;;;;;6.53;5.93;;;20.70;99.90;;;;;;10624229;27;20257;-91
2022/08/01 20:56:26;;;;;;;5.93;5.00;;;20.90;99.90;;;;;;10624387;27;20214;-91
2022/08/01 21:01:34;;;;;;;5.88;5.38;;;20.80;99.90;;;;;;10589064;27;20204;-90
2022/08/01 21:06:41;;;;;;;4.30;4.00;;;20.90;99.90;;;;;;10624555;27;20192;-90
2022/08/01 21:11:54;;;;;;;4.97;4.38;;;21.10;99.90;;;;;;10588120;27;20366;-90
2022/08/01 21:17:02;;;;;;;4.95;4.38;;;21.00;99.90;;;;;;10623755;27;20268;-91
2022/08/01 21:22:28;;;;;;;5.00;4.57;;;20.90;99.90;;;;;;10623766;27;20245;-90
2022/08/01 21:27:33;;;;;;;6.72;6.05;;;20.90;99.90;;;;;;10605450;28;20610;-90
2022/08/01 21:32:36;;;;;;;5.78;5.28;;;20.90;99.90;;;;;;10623093;28;20277;-90
2022/08/01 21:37:41;;;;;;;6.38;5.22;;;20.80;99.90;;;;;;10605089;28;20184;-90
2022/08/01 21:42:46;;;;;;;4.65;4.28;;;20.80;99.90;;;;;;10587429;28;20204;-91
2022/08/01 21:47:49;;;;;;;4.95;4.55;;;20.90;99.90;;;;;;10622979;28;20233;-90
2022/08/01 21:53:19;;;;;;;4.65;4.30;;;20.90;99.90;;;;;;10622770;28;20764;-90
2022/08/01 21:58:42;;;;;;;4.78;4.38;;;20.90;99.90;;;;;;10604082;28;20208;-90
2022/08/01 22:03:47;;;;;;;6.50;5.82;;;20.90;99.90;;;;;;10605238;27;20208;-90
2022/08/01 22:08:58;;;;;;;5.40;5.00;;;20.90;99.90;;;;;;10630964;27;20204;-90
2022/08/01 22:14:07;;;;;;;6.60;5.93;;;20.90;99.90;;;;;;10630631;27;20577;-91
2022/08/01 22:19:10;;;;;;;4.70;4.30;;;20.90;99.90;;;;;;10612354;27;20606;-90
2022/08/01 22:24:33;;;;;;;6.85;6.25;;;20.90;99.90;;;;;;10611946;27;20204;-91
2022/08/01 22:29:36;;;;;;;14.60;6.60;;;20.70;99.90;;;;;;10610657;27;20224;-90
2022/08/01 22:34:38;;;;;;;6.40;5.90;;;20.60;99.90;;;;;;10629788;27;20224;-90
2022/08/01 22:39:41;;;;;;;6.68;6.07;;;20.50;99.90;;;;;;10629485;27;20193;-90
2022/08/01 22:44:56;;;;;;;6.75;6.03;;;20.50;99.90;;;;;;10629337;27;20200;-91
2022/08/01 22:50:05;;;;;;;6.03;5.30;;;20.50;99.90;;;;;;10611160;27;20260;-90
2022/08/01 22:55:10;;;;;;;4.75;4.35;;;20.70;99.90;;;;;;10629482;27;20534;-90
2022/08/01 23:00:13;;;;;;;5.40;4.97;;;20.70;99.90;;;;;;10628576;27;20192;-91
2022/08/01 23:05:21;;;;;;;5.95;5.45;;;20.90;99.90;;;;;;10611220;27;20241;-90
2022/08/01 23:10:25;;;;;;;5.13;4.72;;;20.90;99.90;;;;;;10628283;27;20216;-90
2022/08/01 23:15:28;;;;;;;5.88;4.70;;;20.80;99.90;;;;;;10627991;27;20196;-91
2022/08/01 23:20:34;;;;;;;4.93;4.53;;;20.90;99.90;;;;;;10628083;27;20188;-90
2022/08/01 23:25:39;;;;;;;6.88;5.05;;;20.90;99.90;;;;;;10592094;27;20738;-91
2022/08/01 23:30:42;;;;;;;4.45;4.15;;;21.00;99.90;;;;;;10608848;27;20222;-90
2022/08/01 23:35:44;;;;;;;6.72;5.05;;;21.10;99.90;;;;;;10608279;27;20225;-90
2022/08/01 23:40:48;;;;;;;5.03;4.63;;;21.10;99.90;;;;;;10608258;27;20200;-90
2022/08/01 23:45:51;;;;;;;5.15;4.65;;;20.90;99.90;;;;;;10626910;27;20253;-90
2022/08/01 23:51:06;;;;;;;5.53;4.43;;;21.00;99.90;;;;;;10610939;27;20215;-90
2022/08/01 23:56:10;;;;;;;4.20;3.90;;;21.10;99.90;;;;;;10626620;27;20196;-90
